Talmage, CA (95481)

9:36 AM PST on February 14, 2016 (GMT -0800)
Ukiah Rogina Hights | | Change Station
CLOSE
Current Station
Personal Weather Station
Location: Ukiah, CA
Elevation: 965 ft
Nearby Weather Stations

Elev 965 ft 39.15 °N, 123.17 °W | Updated 7 minutes ago

Clear
Clear
58.8 °F
Feels Like 58.8 °F
N
1.0
Wind Variable Wind from NE
Gusts 4.0 mph

Today
High -- | Low -- °F
--% Chance of Precip.
Yesterday
High -- | Low -- °F
Precip. -- in
Pressure 30.37 in
Visibility 10.0 miles
Clouds Clear
Dew Point 50 °F
Humidity 72%
Rainfall 0.00 in
Snow Depth Not available.
7:05 AM 5:48 PM
Waxing Crescent, 43% visible
METAR KUKI 141656Z AUTO 00000KT 10SM CLR 14/09 A3037 RMK AO2 SLP282 T01440089
Pressure 30.37 in
Visibility 10.0 miles
Clouds Clear
Dew Point 50 °F
Humidity 72%
Rainfall 0.00 in
Snow Depth Not available.
7:05 AM 5:48 PM
Waxing Crescent, 43% visible
METAR KUKI 141656Z AUTO 00000KT 10SM CLR 14/09 A3037 RMK AO2 SLP282 T01440089

10-Day Weather Forecast

Almanac

Astronomy

Feb. 14, 2016 Rise Set
Actual Time
Civil Twilight
Nautical Twilight
Astronomical Twilight
Moon
Length of Visible Light
Length of Day
Tomorrow will be .
, % of the Moon is Illuminated

Today's Extremes

State Highs State Lows

Community

WunderPhotos

Upload Photos

1,892,859 photos uploaded!

WunderBlog® & News

Nearby

Air Quality

  Air Quality AQ Index Pollutant
Not available.

Snow Depth

Station Depth Elevation

Earthquake Activity

City Distance Mag. Time & Date
Minimum magnitude displayed is 2.5.

Coastal Water Temperatures

Place Temperature

Stations

Nearby Weather Stations

Station Location Temp. Windchill Dew Point Humidity Wind Precip. Elev Updated Type
                   

Watches & Warnings

There are currently no watches in effect.